createdAt,value
2023-02-11T00:01:56.354Z,100317.95
2023-02-11T00:06:58.019Z,100308.82
2023-02-11T00:12:03.835Z,100304.77
2023-02-11T00:17:05.475Z,100309.81
2023-02-11T00:22:07.482Z,100306.98
2023-02-11T00:27:09.411Z,100303.39
2023-02-11T00:32:11.263Z,100295.95
2023-02-11T00:37:13.098Z,100306.45
2023-02-11T00:42:16.924Z,100296.29
2023-02-11T00:47:20.223Z,100285.86
2023-02-11T00:52:27.422Z,100269.98
2023-02-11T00:57:29.422Z,100257.63
2023-02-11T01:02:31.357Z,100239.70
2023-02-11T01:07:35.313Z,100217.70
2023-02-11T01:12:40.150Z,100211.58
2023-02-11T01:17:46.398Z,100204.08
2023-02-11T01:22:56.586Z,100199.12
2023-02-11T01:28:16.025Z,100195.65
2023-02-11T01:33:34.250Z,100191.29
2023-02-11T01:38:54.670Z,100181.13
2023-02-11T01:44:30.899Z,100183.57
2023-02-11T01:49:45.387Z,100175.70
2023-02-11T01:55:13.878Z,100165.83
2023-02-11T02:00:29.168Z,100168.33
2023-02-11T02:06:02.748Z,100159.55
2023-02-11T02:11:27.749Z,100137.45
2023-02-11T02:16:33.469Z,100120.48
2023-02-11T02:21:42.055Z,100095.54
2023-02-11T02:27:39.157Z,100091.29
2023-02-11T02:33:24.547Z,100090.81
2023-02-11T02:38:56.609Z,100079.41
2023-02-11T02:44:11.883Z,100074.43
2023-02-11T02:49:24.108Z,100064.16
2023-02-11T02:54:46.382Z,100045.81
2023-02-11T03:00:07.266Z,100042.21
2023-02-11T03:05:15.139Z,100052.77
2023-02-11T03:10:31.039Z,100045.16
2023-02-11T03:15:43.921Z,100044.20
2023-02-11T03:21:22.482Z,100046.79
2023-02-11T03:26:40.284Z,100046.51
2023-02-11T03:31:52.465Z,100033.73
2023-02-11T03:37:01.976Z,100024.52
2023-02-11T03:42:15.783Z,100018.66
2023-02-11T03:47:26.996Z,100005.99
2023-02-11T03:52:32.176Z,99990.40
2023-02-11T03:57:36.631Z,99981.86
2023-02-11T04:02:42.737Z,99961.26
2023-02-11T04:07:44.650Z,99954.02
2023-02-11T04:12:54.066Z,99949.14
2023-02-11T04:17:58.174Z,99929.74
2023-02-11T04:23:00.268Z,99923.94
2023-02-11T04:28:01.898Z,99925.15
2023-02-11T04:33:03.582Z,99915.39
2023-02-11T04:38:13.225Z,99918.00
2023-02-11T04:43:19.779Z,99916.79
2023-02-11T04:48:28.720Z,99934.08
2023-02-11T04:53:32.912Z,99932.59
2023-02-11T04:58:37.651Z,99922.43
2023-02-11T05:03:39.663Z,99922.00
2023-02-11T05:08:44.518Z,99926.10
2023-02-11T05:13:46.842Z,99931.30
2023-02-11T05:18:53.101Z,99916.27
2023-02-11T05:23:57.488Z,99917.02
2023-02-11T05:28:59.394Z,99915.47
2023-02-11T05:34:03.364Z,99914.25
2023-02-11T05:39:05.542Z,99912.20
2023-02-11T05:44:15.842Z,99917.67
2023-02-11T05:49:19.803Z,99921.00
2023-02-11T05:54:24.195Z,99919.95
2023-02-11T05:59:28.984Z,99919.56
2023-02-11T06:04:30.678Z,99903.04
2023-02-11T06:09:34.787Z,99884.33
2023-02-11T06:14:36.888Z,99872.12
2023-02-11T06:19:41.035Z,99877.49
2023-02-11T06:25:00.361Z,99874.91
2023-02-11T06:30:09.563Z,99871.90
2023-02-11T06:35:14.083Z,99881.39
2023-02-11T06:40:16.055Z,99879.95
2023-02-11T06:45:32.632Z,99872.27
2023-02-11T06:50:34.464Z,99873.17
2023-02-11T06:55:39.316Z,99875.13
2023-02-11T07:00:41.360Z,99882.59
2023-02-11T07:05:43.334Z,99881.69
2023-02-11T07:10:47.466Z,99867.34
2023-02-11T07:15:51.757Z,99868.48
2023-02-11T07:20:53.309Z,99867.84
2023-02-11T07:25:57.272Z,99866.38
2023-02-11T07:30:58.995Z,99864.63
2023-02-11T07:36:07.839Z,99863.84
2023-02-11T07:41:33.719Z,99852.84
2023-02-11T07:46:42.405Z,99844.45
2023-02-11T07:52:29.806Z,99831.40
2023-02-11T07:57:56.015Z,99825.94
2023-02-11T08:04:19.813Z,99823.29
2023-02-11T08:09:36.661Z,99812.27
2023-02-11T08:15:11.943Z,99812.05
2023-02-11T08:20:27.073Z,99820.17
2023-02-11T08:25:34.513Z,99835.48
2023-02-11T08:30:40.867Z,99845.32
2023-02-11T08:35:59.502Z,99844.80
2023-02-11T08:41:48.423Z,99840.95
2023-02-11T08:47:51.998Z,99831.91
2023-02-11T08:53:17.575Z,99837.55
2023-02-11T08:59:00.888Z,99832.85
2023-02-11T09:04:02.622Z,99814.77
2023-02-11T09:09:04.439Z,99824.66
2023-02-11T09:14:06.193Z,99830.29
2023-02-11T09:19:09.670Z,99838.65
2023-02-11T09:24:11.582Z,99860.83
2023-02-11T09:29:13.120Z,99862.42
2023-02-11T09:34:15.435Z,99863.13
2023-02-11T09:39:19.739Z,99869.35
2023-02-11T09:44:24.820Z,99867.89
2023-02-11T09:49:39.932Z,99863.70
2023-02-11T09:54:50.322Z,99851.38
2023-02-11T09:59:54.080Z,99857.74
2023-02-11T10:05:16.126Z,99853.83
2023-02-11T10:10:37.410Z,99839.64
2023-02-11T10:15:52.931Z,99826.23
2023-02-11T10:21:45.895Z,99819.39
2023-02-11T10:26:48.647Z,99794.39
2023-02-11T10:31:58.453Z,99779.30
2023-02-11T10:37:13.742Z,99756.13
2023-02-11T10:43:11.788Z,99710.52
2023-02-11T10:48:51.795Z,99688.30
2023-02-11T10:54:15.774Z,99675.86
2023-02-11T11:00:19.844Z,99668.88
2023-02-11T11:06:06.192Z,99682.16
2023-02-11T11:11:36.125Z,99692.07
2023-02-11T11:16:53.928Z,99707.64
2023-02-11T11:22:18.837Z,99704.84
2023-02-11T11:27:59.559Z,99686.90
2023-02-11T11:33:44.206Z,99686.12
2023-02-11T11:39:32.467Z,99678.08
2023-02-11T11:45:19.228Z,99664.92
2023-02-11T11:50:30.480Z,99658.73
2023-02-11T11:55:43.289Z,99670.83
2023-02-11T12:01:01.462Z,99675.19
2023-02-11T12:06:57.347Z,99696.17
2023-02-11T12:13:12.711Z,99690.41
2023-02-11T12:18:46.961Z,99698.85
2023-02-11T12:24:30.234Z,99710.67
2023-02-11T12:30:10.425Z,99691.45
2023-02-11T12:35:29.624Z,99699.73
2023-02-11T12:41:52.625Z,99700.48
2023-02-11T12:47:26.573Z,99686.65
2023-02-11T12:52:55.940Z,99656.11
2023-02-11T12:58:02.372Z,99630.67
2023-02-11T13:03:16.205Z,99593.97
2023-02-11T13:08:47.319Z,99579.42
2023-02-11T13:14:05.919Z,99618.14
2023-02-11T13:19:47.871Z,99621.10
2023-02-11T13:25:47.338Z,99625.88
2023-02-11T13:31:11.925Z,99618.00
2023-02-11T13:36:19.987Z,99612.11
2023-02-11T13:41:32.247Z,99582.31
2023-02-11T13:47:10.809Z,99541.19
2023-02-11T13:52:38.216Z,99556.28
2023-02-11T13:58:26.485Z,99569.15
2023-02-11T14:04:46.385Z,99576.80
2023-02-11T14:10:49.107Z,99577.80
2023-02-11T14:16:38.399Z,99585.27
2023-02-11T14:22:29.339Z,99587.17
2023-02-11T14:29:01.156Z,99590.05
2023-02-11T14:35:14.531Z,99587.13
2023-02-11T14:40:58.229Z,99596.43
2023-02-11T14:46:19.769Z,99594.01
2023-02-11T14:51:49.507Z,99601.13
2023-02-11T14:57:15.622Z,99604.23
2023-02-11T15:02:47.820Z,99606.18
2023-02-11T15:08:30.451Z,99614.02
2023-02-11T15:13:47.667Z,99626.45
2023-02-11T15:19:44.695Z,99623.65
2023-02-11T15:25:35.645Z,99625.20
2023-02-11T15:31:17.670Z,99634.08
2023-02-11T15:37:03.644Z,99652.14
2023-02-11T15:43:12.725Z,99660.98
2023-02-11T15:49:03.575Z,99664.31
2023-02-11T15:54:46.791Z,99668.70
2023-02-11T16:00:59.479Z,99669.62
2023-02-11T16:07:08.636Z,99679.74
2023-02-11T16:12:35.417Z,99679.88
2023-02-11T16:17:59.749Z,99688.90
2023-02-11T16:23:07.792Z,99679.88
2023-02-11T16:28:40.182Z,99678.53
2023-02-11T16:34:45.357Z,99681.19
2023-02-11T16:39:57.591Z,99686.52
2023-02-11T16:45:05.362Z,99682.19
2023-02-11T16:50:30.467Z,99686.64
2023-02-11T16:56:13.292Z,99694.27
2023-02-11T17:01:37.853Z,99702.66
2023-02-11T17:07:02.824Z,99697.56
2023-02-11T17:12:29.488Z,99706.07
2023-02-11T17:17:47.830Z,99708.55
2023-02-11T17:22:56.229Z,99712.11
2023-02-11T17:28:29.324Z,99719.45
2023-02-11T17:33:51.694Z,99716.30
2023-02-11T17:39:38.936Z,99718.35
2023-02-11T17:45:22.508Z,99722.30
2023-02-11T17:50:45.194Z,99721.29
2023-02-11T17:56:01.842Z,99718.42
2023-02-11T18:01:06.762Z,99713.84
2023-02-11T18:06:08.418Z,99711.10
2023-02-11T18:11:12.031Z,99716.17
2023-02-11T18:16:15.080Z,99715.54
2023-02-11T18:21:19.653Z,99719.84
2023-02-11T18:26:21.527Z,99722.41
2023-02-11T18:31:39.828Z,99720.77
2023-02-11T18:36:44.997Z,99724.33
2023-02-11T18:41:49.043Z,99732.44
2023-02-11T18:46:53.321Z,99736.61
2023-02-11T18:51:55.016Z,99734.68
2023-02-11T18:56:56.907Z,99742.57
2023-02-11T19:01:58.692Z,99743.58
2023-02-11T19:07:03.263Z,99742.66
2023-02-11T20:32:15.677Z,99768.68
2023-02-11T20:37:20.134Z,99774.75
2023-02-11T20:42:21.845Z,99789.27
2023-02-11T20:47:23.668Z,99787.40
2023-02-11T20:52:25.682Z,99794.48
2023-02-11T20:58:26.949Z,99796.57
2023-02-11T21:05:00.298Z,99804.52
2023-02-11T21:11:23.806Z,99815.01
2023-02-11T21:17:27.359Z,99814.30
2023-02-11T21:22:29.177Z,99813.46
2023-02-11T21:27:33.008Z,99816.35
2023-02-11T21:32:34.685Z,99823.96
2023-02-11T21:37:38.963Z,99829.76
2023-02-11T21:42:41.194Z,99839.66
2023-02-11T21:48:42.725Z,99858.52
2023-02-11T21:55:06.152Z,99867.55
2023-02-11T22:00:28.231Z,99872.48
2023-02-11T22:05:32.219Z,99871.77
2023-02-11T22:11:33.338Z,99872.94
2023-02-11T22:17:35.556Z,99869.63
2023-02-11T22:24:06.926Z,99877.36
2023-02-11T22:30:28.007Z,99889.45
2023-02-11T22:36:25.006Z,99898.52
2023-02-11T22:42:32.274Z,99905.34
2023-02-11T22:48:40.651Z,99908.83
2023-02-11T22:55:43.175Z,99907.15
2023-02-11T23:02:27.667Z,99916.92
2023-02-11T23:09:11.278Z,99921.14
2023-02-11T23:15:32.598Z,99929.61
2023-02-11T23:22:12.091Z,99929.10
2023-02-11T23:28:49.621Z,99933.62
2023-02-11T23:34:30.368Z,99940.86
2023-02-11T23:39:34.862Z,99947.48
2023-02-11T23:45:16.924Z,99942.22
2023-02-11T23:50:46.483Z,99945.61
2023-02-11T23:56:26.113Z,99944.61
